Weather at Mirče Acev Military Barracks Heliport

Public forecast

Using degrees Celsius for public forecast. Weather courtesy of forecast.io.

Closest aviation weather report (METAR) to Mirče Acev Military Barracks Heliport

Closest report is Skopje International Airport, 36.1 nm (66.9 km) N.

2024/05/20 18:50 (retrieved 46 minutes ago)

LWSK 201850Z 10006KT 060V130 9999 FEW040 22/18 Q1013 NOSIG

Closest aviation forecast (TAF) to Mirče Acev Military Barracks Heliport

Closest forecast is Skopje International Airport, 36.1 nm (66.9 km) N.

2024/05/20 18:18 (retrieved 1 hour ago)

TAF LWSK 201712Z 2018/2118 16006KT CAVOK PROB30 TEMPO 2018/2022 VRB15KT TSRA FEW033CB BKN040